createdAt,value
2018-06-30T00:01:34.626Z,9.77
2018-06-30T00:04:05.300Z,10.73
2018-06-30T00:06:36.051Z,8.07
2018-06-30T00:09:09.537Z,8.43
2018-06-30T00:11:40.307Z,8.77
2018-06-30T00:14:10.997Z,12.50
2018-06-30T00:16:41.685Z,8.93
2018-06-30T00:19:12.376Z,6.40
2018-06-30T00:21:43.064Z,7.43
2018-06-30T00:24:13.803Z,9.07
2018-06-30T00:26:44.517Z,9.87
2018-06-30T00:29:15.239Z,8.43
2018-06-30T00:31:45.926Z,10.93
2018-06-30T00:34:16.620Z,11.80
2018-06-30T00:36:47.341Z,11.60
2018-06-30T00:39:18.050Z,9.50
2018-06-30T00:41:48.703Z,8.93
2018-06-30T00:44:19.696Z,11.87
2018-06-30T00:46:50.402Z,9.23
2018-06-30T00:49:21.248Z,11.40
2018-06-30T00:51:51.936Z,9.67
2018-06-30T00:54:22.633Z,9.13
2018-06-30T00:56:53.316Z,10.77
2018-06-30T00:59:24.019Z,8.90
2018-06-30T01:01:54.692Z,11.73
2018-06-30T01:04:25.369Z,9.17
2018-06-30T01:06:56.131Z,11.37
2018-06-30T01:09:27.163Z,9.20
2018-06-30T01:11:57.841Z,9.13
2018-06-30T01:14:28.728Z,8.53
2018-06-30T01:16:59.447Z,8.47
2018-06-30T01:19:30.096Z,10.20
2018-06-30T01:22:00.830Z,10.50
2018-06-30T01:24:31.500Z,10.27
2018-06-30T01:27:02.195Z,10.70
2018-06-30T01:29:32.875Z,10.47
2018-06-30T01:32:03.624Z,11.17
2018-06-30T01:34:34.343Z,12.20
2018-06-30T01:37:04.755Z,9.80
2018-06-30T01:39:35.304Z,11.23
2018-06-30T01:42:06.013Z,9.93
2018-06-30T01:44:36.673Z,8.83
2018-06-30T01:47:07.368Z,8.80
2018-06-30T01:49:38.314Z,12.87
2018-06-30T01:52:08.974Z,10.90
2018-06-30T01:54:39.690Z,10.33
2018-06-30T01:57:10.405Z,11.17
2018-06-30T01:59:41.081Z,7.37
2018-06-30T02:02:11.743Z,8.77
2018-06-30T02:04:42.432Z,11.03
2018-06-30T02:07:13.197Z,11.97
2018-06-30T02:09:43.860Z,14.10
2018-06-30T02:12:14.568Z,9.27
2018-06-30T02:14:45.249Z,11.10
2018-06-30T02:17:15.926Z,10.37
2018-06-30T02:19:46.608Z,10.53
2018-06-30T02:22:17.308Z,12.73
2018-06-30T02:24:47.988Z,12.53
2018-06-30T02:27:18.790Z,14.40
2018-06-30T02:33:23.367Z,11.50
2018-06-30T02:35:54.029Z,14.30
2018-06-30T02:38:24.750Z,13.40
2018-06-30T02:40:55.429Z,14.63
2018-06-30T02:43:26.088Z,14.13
2018-06-30T02:45:56.834Z,15.90
2018-06-30T02:48:27.416Z,14.17
2018-06-30T02:50:58.105Z,13.40
2018-06-30T02:53:28.877Z,14.30
2018-06-30T02:55:59.591Z,14.43
2018-06-30T02:58:30.304Z,16.97
2018-06-30T03:01:01.027Z,14.73
2018-06-30T03:03:31.775Z,14.13
2018-06-30T03:06:02.469Z,13.63
2018-06-30T03:08:33.160Z,14.93
2018-06-30T03:11:03.819Z,14.87
2018-06-30T03:13:34.497Z,14.53
2018-06-30T03:18:50.139Z,18.43
2018-06-30T03:21:20.825Z,15.30
2018-06-30T03:23:51.535Z,16.53
2018-06-30T03:26:22.217Z,17.13
2018-06-30T03:28:52.975Z,18.80
2018-06-30T03:31:23.739Z,17.97
2018-06-30T03:33:54.490Z,16.93
2018-06-30T03:36:25.190Z,17.17
2018-06-30T03:38:55.897Z,16.90
2018-06-30T03:41:26.602Z,16.03
2018-06-30T03:43:57.319Z,18.40
2018-06-30T03:46:27.987Z,16.43
2018-06-30T03:48:58.675Z,15.80
2018-06-30T03:51:29.359Z,17.00
2018-06-30T03:54:00.049Z,18.90
2018-06-30T03:56:30.717Z,16.93
2018-06-30T03:59:01.503Z,17.97
2018-06-30T04:01:32.203Z,17.67
2018-06-30T04:04:02.954Z,19.10
2018-06-30T04:06:33.680Z,16.00
2018-06-30T04:09:06.234Z,17.53
2018-06-30T04:11:36.947Z,16.80
2018-06-30T04:14:07.842Z,15.97
2018-06-30T04:16:38.563Z,17.57
2018-06-30T04:19:16.563Z,19.40
2018-06-30T04:21:48.013Z,15.30
2018-06-30T04:24:18.764Z,18.33
2018-06-30T04:26:49.449Z,16.83
2018-06-30T04:29:20.197Z,19.40
2018-06-30T04:31:50.894Z,20.57
2018-06-30T04:34:21.611Z,18.73
2018-06-30T04:36:52.337Z,18.20
2018-06-30T04:39:23.103Z,19.60
2018-06-30T04:41:53.803Z,18.67
2018-06-30T04:44:24.502Z,19.53
2018-06-30T04:46:55.213Z,18.93
2018-06-30T04:49:25.899Z,18.10
2018-06-30T04:51:56.576Z,20.37
2018-06-30T04:54:27.276Z,16.90
2018-06-30T04:56:57.675Z,18.80
2018-06-30T04:59:28.272Z,22.77
2018-06-30T05:01:58.920Z,18.83
2018-06-30T05:04:29.604Z,19.57
2018-06-30T05:07:00.347Z,20.17
2018-06-30T05:09:31.060Z,19.37
2018-06-30T05:12:01.761Z,18.77
2018-06-30T05:14:32.433Z,18.90
2018-06-30T05:17:03.127Z,20.17
2018-06-30T05:19:33.812Z,21.60
2018-06-30T05:22:04.535Z,16.33
2018-06-30T05:24:35.255Z,17.57
2018-06-30T05:27:06.551Z,17.13
2018-06-30T05:29:37.293Z,19.67
2018-06-30T05:32:08.013Z,18.40
2018-06-30T05:34:38.763Z,16.13
2018-06-30T05:37:09.437Z,14.67
2018-06-30T05:39:40.187Z,14.57
2018-06-30T05:42:10.907Z,16.07
2018-06-30T05:44:41.647Z,16.23
2018-06-30T05:47:12.335Z,14.63
2018-06-30T05:49:43.073Z,17.83
2018-06-30T05:52:13.870Z,16.40
2018-06-30T05:54:44.622Z,16.17
2018-06-30T05:57:15.350Z,17.80
2018-06-30T05:59:46.100Z,13.87
2018-06-30T06:02:16.897Z,15.40
2018-06-30T06:04:47.592Z,17.57
2018-06-30T06:07:18.355Z,14.30
2018-06-30T06:09:49.962Z,14.10
2018-06-30T06:12:20.692Z,12.87
2018-06-30T06:14:51.440Z,13.17
2018-06-30T06:17:21.806Z,15.40
2018-06-30T06:19:52.428Z,15.90
2018-06-30T06:22:23.149Z,12.50
2018-06-30T06:24:53.844Z,12.23
2018-06-30T06:27:24.625Z,11.63
2018-06-30T06:29:55.259Z,13.80
2018-06-30T06:32:26.004Z,12.33
2018-06-30T06:34:56.703Z,12.03
2018-06-30T06:37:27.538Z,13.10
2018-06-30T06:39:58.196Z,12.57
2018-06-30T06:42:28.917Z,11.87
2018-06-30T06:44:59.618Z,12.60
2018-06-30T06:47:30.354Z,9.80
2018-06-30T06:50:01.027Z,8.97
2018-06-30T06:52:31.761Z,9.93
2018-06-30T06:55:02.487Z,8.23
2018-06-30T06:57:33.255Z,9.27
2018-06-30T07:00:04.012Z,12.57
2018-06-30T07:02:34.715Z,8.33
2018-06-30T07:05:05.737Z,10.03
2018-06-30T07:07:36.524Z,11.13
2018-06-30T07:10:07.459Z,8.57
2018-06-30T07:12:38.221Z,7.67
2018-06-30T07:15:09.186Z,6.87
2018-06-30T07:17:39.986Z,9.17
2018-06-30T07:20:41.812Z,6.80
2018-06-30T07:23:12.485Z,5.50
2018-06-30T07:25:43.204Z,6.80
2018-06-30T07:28:13.938Z,7.03
2018-06-30T07:30:44.648Z,8.77
2018-06-30T07:33:15.496Z,6.67
2018-06-30T07:35:46.200Z,6.10
2018-06-30T07:38:16.908Z,5.40
2018-06-30T07:40:47.658Z,5.77
2018-06-30T07:43:18.448Z,6.90
2018-06-30T07:45:49.121Z,5.63
2018-06-30T07:48:19.800Z,6.40
2018-06-30T07:50:50.525Z,4.63
2018-06-30T07:53:21.267Z,5.13
2018-06-30T07:55:51.955Z,6.53
2018-06-30T07:58:22.688Z,13.33
2018-06-30T08:00:53.429Z,7.40
2018-06-30T08:03:24.142Z,5.67
2018-06-30T08:05:54.837Z,5.33
2018-06-30T08:08:25.516Z,3.70
2018-06-30T08:10:56.221Z,4.63
2018-06-30T08:13:26.980Z,8.30
2018-06-30T08:15:57.685Z,6.33
2018-06-30T08:18:28.412Z,4.13
2018-06-30T08:20:59.154Z,3.50
2018-06-30T08:23:29.920Z,5.20
2018-06-30T08:26:00.674Z,4.87
2018-06-30T08:28:31.348Z,5.37
2018-06-30T08:31:02.080Z,4.63
2018-06-30T08:33:32.856Z,5.20
2018-06-30T08:36:03.571Z,4.80
2018-06-30T08:38:34.316Z,6.40
2018-06-30T08:41:05.024Z,4.53
2018-06-30T08:43:35.755Z,4.10
2018-06-30T08:46:07.031Z,5.87
2018-06-30T08:48:37.376Z,4.57
2018-06-30T08:51:08.028Z,7.03
2018-06-30T08:53:38.676Z,7.20
2018-06-30T08:56:09.386Z,4.43
2018-06-30T08:58:40.523Z,3.67
2018-06-30T09:01:11.224Z,3.10
2018-06-30T09:03:41.995Z,3.93
2018-06-30T09:06:12.656Z,6.80
2018-06-30T09:08:43.413Z,5.53
2018-06-30T09:11:14.183Z,4.53
2018-06-30T09:13:44.902Z,4.07
2018-06-30T09:16:15.787Z,3.47
2018-06-30T09:18:46.536Z,6.17
2018-06-30T09:21:17.311Z,5.97
2018-06-30T09:23:48.004Z,5.23
2018-06-30T09:26:18.712Z,5.03
2018-06-30T09:28:49.420Z,5.63
2018-06-30T09:31:20.201Z,8.23
2018-06-30T09:33:50.880Z,3.80
2018-06-30T09:36:21.627Z,3.43
2018-06-30T09:38:52.288Z,3.20
2018-06-30T09:41:23.024Z,3.77
2018-06-30T09:43:53.735Z,4.60
2018-06-30T09:46:24.563Z,3.83
2018-06-30T09:48:55.284Z,5.90
2018-06-30T09:51:26.029Z,6.97
2018-06-30T09:53:56.713Z,6.07
2018-06-30T09:56:27.417Z,9.20
2018-06-30T09:58:58.107Z,7.40
2018-06-30T10:01:28.819Z,6.70
2018-06-30T10:03:59.519Z,4.23
2018-06-30T10:06:30.256Z,7.10
2018-06-30T10:09:00.988Z,5.13
2018-06-30T10:11:31.727Z,3.77
2018-06-30T10:14:02.423Z,4.63
2018-06-30T10:16:33.139Z,3.70
2018-06-30T10:19:03.956Z,3.60
2018-06-30T10:21:34.660Z,3.73
2018-06-30T10:24:05.455Z,4.00
2018-06-30T10:26:36.169Z,2.93
2018-06-30T10:29:06.888Z,2.77
2018-06-30T10:31:37.585Z,4.47
2018-06-30T10:34:08.249Z,2.53
2018-06-30T10:36:38.948Z,2.97
2018-06-30T10:39:11.976Z,8.17
2018-06-30T10:41:42.824Z,9.23
2018-06-30T10:44:13.529Z,6.60
2018-06-30T10:46:44.280Z,10.93
2018-06-30T10:49:15.033Z,6.10
2018-06-30T10:51:45.738Z,5.33
2018-06-30T10:54:16.506Z,2.83
2018-06-30T10:56:47.231Z,4.93
2018-06-30T10:59:17.909Z,5.90
2018-06-30T11:01:48.592Z,3.00
2018-06-30T11:04:19.289Z,3.27
2018-06-30T11:06:49.967Z,1.67
2018-06-30T11:09:20.663Z,2.10
2018-06-30T11:11:51.352Z,4.57
2018-06-30T11:14:22.053Z,2.83
2018-06-30T11:16:52.739Z,2.17
2018-06-30T11:19:23.415Z,2.70
2018-06-30T11:21:54.443Z,4.50
2018-06-30T11:24:25.171Z,2.80
2018-06-30T11:26:55.939Z,3.57
2018-06-30T11:29:27.032Z,3.53
2018-06-30T11:31:57.714Z,2.93
2018-06-30T11:34:28.444Z,5.43
2018-06-30T11:36:59.133Z,4.87
2018-06-30T11:39:29.866Z,5.03
2018-06-30T11:42:00.628Z,1.57
2018-06-30T11:44:31.341Z,4.00
2018-06-30T11:47:02.083Z,1.20
2018-06-30T11:49:32.829Z,1.10
2018-06-30T11:52:03.663Z,2.87
2018-06-30T11:54:34.376Z,2.10
2018-06-30T11:57:05.177Z,2.63
2018-06-30T11:59:35.884Z,4.27
2018-06-30T12:02:06.938Z,2.07
2018-06-30T12:05:40.669Z,1.33
2018-06-30T12:08:11.424Z,1.63
2018-06-30T12:10:42.133Z,4.10
2018-06-30T12:13:12.970Z,3.20
2018-06-30T12:15:43.707Z,2.67
2018-06-30T12:18:14.381Z,4.50
2018-06-30T12:20:45.347Z,1.93
2018-06-30T12:23:16.019Z,1.90
2018-06-30T12:25:46.707Z,4.73
2018-06-30T12:28:17.388Z,2.10
2018-06-30T12:30:48.056Z,2.30
2018-06-30T12:33:18.738Z,0.93
2018-06-30T12:35:49.520Z,2.40
2018-06-30T12:38:19.879Z,2.40
2018-06-30T12:40:50.491Z,2.20
2018-06-30T12:43:21.193Z,2.47
2018-06-30T12:45:51.977Z,5.03
2018-06-30T12:48:22.645Z,4.70
2018-06-30T12:50:53.333Z,2.40
2018-06-30T12:53:24.057Z,1.70
2018-06-30T12:55:54.761Z,2.97
2018-06-30T12:58:25.468Z,0.93
2018-06-30T13:00:56.318Z,3.03
2018-06-30T13:03:27.205Z,1.57
2018-06-30T13:05:57.898Z,2.37
2018-06-30T13:08:28.626Z,3.57
2018-06-30T13:10:59.321Z,1.70
2018-06-30T13:13:30.036Z,2.23
2018-06-30T13:16:00.751Z,2.93
2018-06-30T13:18:31.432Z,3.23
2018-06-30T13:21:02.090Z,2.87
2018-06-30T13:23:32.801Z,7.03
2018-06-30T13:26:03.525Z,1.83
2018-06-30T13:28:34.212Z,2.00
2018-06-30T13:31:05.057Z,3.53
2018-06-30T13:33:35.717Z,3.80
2018-06-30T13:36:06.501Z,2.33
2018-06-30T13:38:37.256Z,1.93
2018-06-30T13:41:08.281Z,1.93
2018-06-30T13:43:39.110Z,3.03
2018-06-30T13:46:09.893Z,1.17
2018-06-30T13:48:40.681Z,3.03
2018-06-30T13:51:11.473Z,1.93
2018-06-30T13:53:42.220Z,2.43
2018-06-30T13:56:12.964Z,1.07
2018-06-30T13:58:43.656Z,1.07
2018-06-30T14:01:14.398Z,3.17
2018-06-30T14:03:45.079Z,1.83
2018-06-30T14:06:15.822Z,3.67
2018-06-30T14:08:46.598Z,1.87
2018-06-30T14:11:17.328Z,2.33
2018-06-30T14:13:47.993Z,3.67
2018-06-30T14:16:18.703Z,3.03
2018-06-30T14:18:49.464Z,1.93
2018-06-30T14:21:20.174Z,1.93
2018-06-30T14:23:50.861Z,2.83
2018-06-30T14:26:21.603Z,5.07
2018-06-30T14:28:52.532Z,6.70
2018-06-30T14:31:23.268Z,3.67
2018-06-30T14:33:54.000Z,3.47
2018-06-30T14:36:24.763Z,1.50
2018-06-30T14:38:55.473Z,4.43
2018-06-30T14:41:26.197Z,2.63
2018-06-30T14:43:56.882Z,4.77
2018-06-30T14:46:27.557Z,4.70
2018-06-30T14:48:58.308Z,2.53
2018-06-30T14:51:29.048Z,3.17
2018-06-30T14:57:01.221Z,4.53
2018-06-30T14:59:31.977Z,1.53
2018-06-30T15:02:02.740Z,3.97
2018-06-30T15:04:36.297Z,1.80
2018-06-30T15:07:07.132Z,1.40
2018-06-30T15:09:37.593Z,3.63
2018-06-30T15:12:08.314Z,1.70
2018-06-30T15:14:39.109Z,1.90
2018-06-30T15:17:09.852Z,2.20
2018-06-30T15:19:40.598Z,3.37
2018-06-30T15:22:11.324Z,4.40
2018-06-30T15:24:42.079Z,3.00
2018-06-30T15:27:12.760Z,5.50
2018-06-30T15:29:43.465Z,3.17
2018-06-30T15:32:14.189Z,0.70
2018-06-30T15:34:44.874Z,2.30
2018-06-30T15:37:15.572Z,2.07
2018-06-30T15:39:46.391Z,2.67
2018-06-30T15:42:17.081Z,2.50
2018-06-30T15:44:47.780Z,1.43
2018-06-30T15:47:18.588Z,1.33
2018-06-30T15:49:49.256Z,4.23
2018-06-30T15:52:19.986Z,2.73
2018-06-30T15:54:50.921Z,2.70
2018-06-30T15:57:21.616Z,1.37
2018-06-30T15:59:58.582Z,2.40
2018-06-30T16:02:29.237Z,2.40
2018-06-30T16:04:59.947Z,2.43
2018-06-30T16:07:30.677Z,3.63
2018-06-30T16:10:01.566Z,3.33
2018-06-30T16:12:32.160Z,0.93
2018-06-30T16:15:02.843Z,0.60
2018-06-30T16:17:33.503Z,1.40
2018-06-30T16:20:04.256Z,4.03
2018-06-30T16:22:34.992Z,1.63
2018-06-30T16:25:06.072Z,3.23
2018-06-30T16:27:36.783Z,1.07
2018-06-30T16:30:08.984Z,4.03
2018-06-30T16:32:39.737Z,1.03
2018-06-30T16:35:10.452Z,2.93
2018-06-30T16:37:41.205Z,2.47
2018-06-30T16:40:11.939Z,4.53
2018-06-30T16:42:42.681Z,0.80
2018-06-30T16:45:13.428Z,1.97
2018-06-30T16:47:44.107Z,1.20
2018-06-30T16:50:14.787Z,4.77
2018-06-30T16:52:45.471Z,1.90
2018-06-30T16:55:16.181Z,3.60
2018-06-30T16:57:46.849Z,2.93
2018-06-30T17:00:17.595Z,3.03
2018-06-30T17:02:48.259Z,4.90
2018-06-30T17:05:18.943Z,2.03
2018-06-30T17:07:49.650Z,5.47
2018-06-30T17:10:20.352Z,2.03
2018-06-30T17:12:51.031Z,1.23
2018-06-30T17:15:21.783Z,5.57
2018-06-30T17:17:52.463Z,2.00
2018-06-30T17:20:23.145Z,3.70
2018-06-30T17:22:53.929Z,3.57
2018-06-30T17:25:24.681Z,2.70
2018-06-30T17:27:55.435Z,3.90
2018-06-30T17:30:26.160Z,3.00
2018-06-30T17:32:56.840Z,2.23
2018-06-30T17:35:27.221Z,3.03
2018-06-30T17:37:58.188Z,3.17
2018-06-30T17:40:28.926Z,3.47
2018-06-30T17:42:59.686Z,2.87
2018-06-30T17:45:30.669Z,4.63
2018-06-30T17:48:01.405Z,4.33
2018-06-30T17:50:32.126Z,1.53
2018-06-30T17:53:02.860Z,1.43
2018-06-30T17:55:33.681Z,3.10
2018-06-30T17:58:04.446Z,2.50
2018-06-30T18:00:35.199Z,3.63
2018-06-30T18:03:06.108Z,2.43
2018-06-30T18:05:36.797Z,3.17
2018-06-30T18:08:07.580Z,4.03
2018-06-30T18:10:38.331Z,2.33
2018-06-30T18:13:09.288Z,3.30
2018-06-30T18:15:40.018Z,4.33
2018-06-30T18:18:10.716Z,4.20
2018-06-30T18:20:41.479Z,3.20
2018-06-30T18:23:12.139Z,5.23
2018-06-30T18:25:42.863Z,3.57
2018-06-30T18:28:13.577Z,3.90
2018-06-30T18:30:44.343Z,1.63
2018-06-30T18:33:15.033Z,2.57
2018-06-30T18:35:45.761Z,2.67
2018-06-30T18:38:16.429Z,6.37
2018-06-30T18:40:47.124Z,4.07
2018-06-30T18:43:17.789Z,3.90
2018-06-30T18:45:48.520Z,3.63
2018-06-30T18:48:19.495Z,3.43
2018-06-30T18:50:50.219Z,3.33
2018-06-30T18:53:20.934Z,5.93
2018-06-30T18:55:51.640Z,3.80
2018-06-30T18:58:22.501Z,3.77
2018-06-30T19:00:53.217Z,6.10
2018-06-30T19:03:24.038Z,2.77
2018-06-30T19:05:54.747Z,3.57
2018-06-30T19:08:25.460Z,4.60
2018-06-30T19:10:56.195Z,3.47
2018-06-30T19:13:27.001Z,4.00
2018-06-30T19:15:57.753Z,2.33
2018-06-30T19:18:28.579Z,1.93
2018-06-30T19:20:59.262Z,2.27
2018-06-30T19:23:29.959Z,2.63
2018-06-30T19:26:00.651Z,2.27
2018-06-30T19:28:31.393Z,3.83
2018-06-30T19:31:02.055Z,3.77
2018-06-30T19:33:32.776Z,2.83
2018-06-30T19:36:03.485Z,2.83
2018-06-30T19:38:34.252Z,4.23
2018-06-30T19:41:05.038Z,2.23
2018-06-30T19:43:35.755Z,3.27
2018-06-30T19:46:06.412Z,5.20
2018-06-30T19:48:37.134Z,4.20
2018-06-30T19:51:07.875Z,1.97
2018-06-30T19:53:38.567Z,5.30
2018-06-30T19:56:09.314Z,3.23
2018-06-30T19:58:40.049Z,7.90
2018-06-30T20:01:10.736Z,6.17
2018-06-30T20:03:41.477Z,3.40
2018-06-30T20:06:12.164Z,3.10
2018-06-30T20:08:42.896Z,6.37
2018-06-30T20:11:13.608Z,4.30
2018-06-30T20:13:44.368Z,4.50
2018-06-30T20:16:15.096Z,5.53
2018-06-30T20:18:45.794Z,4.60
2018-06-30T20:21:16.457Z,4.00
2018-06-30T20:23:47.121Z,4.13
2018-06-30T20:26:17.796Z,4.20
2018-06-30T20:28:48.548Z,3.83
2018-06-30T20:31:19.293Z,3.63
2018-06-30T20:33:50.072Z,3.83
2018-06-30T20:36:20.752Z,2.57
2018-06-30T20:38:51.864Z,6.67
2018-06-30T20:41:22.543Z,2.70
2018-06-30T20:43:53.263Z,3.97
2018-06-30T20:46:23.939Z,3.27
2018-06-30T20:48:54.658Z,6.17
2018-06-30T20:51:25.374Z,4.80
2018-06-30T20:53:56.092Z,3.43
2018-06-30T20:56:26.993Z,3.67
2018-06-30T20:58:57.665Z,2.83
2018-06-30T21:01:28.410Z,1.00
2018-06-30T21:03:59.244Z,2.63
2018-06-30T21:06:30.001Z,2.70
2018-06-30T21:09:00.699Z,1.27
2018-06-30T21:11:31.374Z,1.47
2018-06-30T21:14:02.134Z,2.80
2018-06-30T21:16:32.923Z,2.17
2018-06-30T21:19:03.703Z,2.83
2018-06-30T21:21:34.405Z,0.73
2018-06-30T21:24:05.241Z,2.90
2018-06-30T21:26:35.928Z,2.90
2018-06-30T21:29:06.714Z,3.00
2018-06-30T21:31:37.458Z,2.60
2018-06-30T21:34:08.249Z,1.87
2018-06-30T21:36:39.075Z,2.20
2018-06-30T21:39:12.591Z,1.03
2018-06-30T21:41:43.248Z,2.00
2018-06-30T21:44:13.966Z,0.93
2018-06-30T21:46:44.627Z,0.80
2018-06-30T21:49:15.360Z,1.43
2018-06-30T21:51:46.094Z,2.17
2018-06-30T21:54:16.849Z,1.20
2018-06-30T21:56:47.611Z,2.40
2018-06-30T21:59:18.324Z,1.37
2018-06-30T22:01:49.082Z,1.53
2018-06-30T22:04:19.744Z,1.50
2018-06-30T22:06:50.463Z,0.80
2018-06-30T22:09:21.256Z,0.60
2018-06-30T22:11:52.069Z,1.93
2018-06-30T22:14:22.815Z,3.27
2018-06-30T22:16:53.525Z,2.33
2018-06-30T22:19:24.284Z,2.77
2018-06-30T22:21:55.048Z,4.60
2018-06-30T22:24:25.747Z,0.77
2018-06-30T22:26:56.514Z,1.23
2018-06-30T22:29:27.190Z,1.50
2018-06-30T22:31:57.923Z,1.80
2018-06-30T22:34:28.657Z,3.93
2018-06-30T22:36:59.367Z,0.80
2018-06-30T22:39:46.797Z,2.43
2018-06-30T22:42:17.452Z,1.70
2018-06-30T22:44:48.151Z,1.20
2018-06-30T22:47:18.851Z,2.60
2018-06-30T22:49:49.544Z,1.33
2018-06-30T22:52:20.272Z,2.40
2018-06-30T22:54:50.949Z,2.60
2018-06-30T22:57:21.609Z,3.60
2018-06-30T22:59:52.332Z,2.87
2018-06-30T23:02:23.122Z,2.23
2018-06-30T23:04:53.910Z,2.03
2018-06-30T23:07:24.598Z,2.43
2018-06-30T23:09:55.421Z,1.83
2018-06-30T23:12:26.148Z,5.13
2018-06-30T23:14:57.479Z,2.23
2018-06-30T23:17:28.223Z,2.43
2018-06-30T23:19:58.904Z,1.90
2018-06-30T23:23:12.253Z,1.80
2018-06-30T23:25:42.939Z,2.83
2018-06-30T23:28:13.673Z,1.90
2018-06-30T23:30:44.335Z,1.33
2018-06-30T23:33:15.071Z,2.17
2018-06-30T23:35:45.823Z,2.73
2018-06-30T23:38:16.549Z,1.30
2018-06-30T23:40:47.208Z,3.13
2018-06-30T23:43:17.931Z,2.40
2018-06-30T23:45:48.693Z,2.70
2018-06-30T23:48:19.413Z,2.57
2018-06-30T23:50:50.098Z,2.20
2018-06-30T23:53:20.807Z,1.20
2018-06-30T23:55:51.515Z,2.40
2018-06-30T23:58:22.218Z,2.47
